sensor_id;sensor_type;location;lat;lon;timestamp;pressure;altitude;pressure_sealevel;temperature;humidity
60089;BME280;45961;53.574;55.878;2023-05-29T00:00:18;100001.41;;;17.36;56.75
60089;BME280;45961;53.574;55.878;2023-05-29T00:01:21;100000.66;;;17.31;56.44
60089;BME280;45961;53.574;55.878;2023-05-29T00:02:25;99998.78;;;17.36;56.00
60089;BME280;45961;53.574;55.878;2023-05-29T00:03:26;100007.47;;;17.38;56.78
60089;BME280;45961;53.574;55.878;2023-05-29T00:04:27;100004.88;;;17.36;56.69
60089;BME280;45961;53.574;55.878;2023-05-29T00:05:28;99988.56;;;17.25;57.32
60089;BME280;45961;53.574;55.878;2023-05-29T00:06:28;99997.94;;;17.35;57.15
60089;BME280;45961;53.574;55.878;2023-05-29T00:07:30;100008.34;;;17.38;56.71
60089;BME280;45961;53.574;55.878;2023-05-29T00:08:31;100005.75;;;17.37;57.26
60089;BME280;45961;53.574;55.878;2023-05-29T00:09:32;100011.88;;;17.36;57.27
60089;BME280;45961;53.574;55.878;2023-05-29T00:10:33;100013.50;;;17.40;56.91
60089;BME280;45961;53.574;55.878;2023-05-29T00:11:36;100011.81;;;17.39;57.64
60089;BME280;45961;53.574;55.878;2023-05-29T00:12:38;100009.19;;;17.39;57.66
60089;BME280;45961;53.574;55.878;2023-05-29T00:13:39;100016.06;;;17.43;56.55
60089;BME280;45961;53.574;55.878;2023-05-29T00:14:40;100013.50;;;17.41;56.41
60089;BME280;45961;53.574;55.878;2023-05-29T00:15:41;100016.97;;;17.42;56.71
60089;BME280;45961;53.574;55.878;2023-05-29T00:16:42;100010.78;;;17.44;57.03
60089;BME280;45961;53.574;55.878;2023-05-29T00:17:44;100015.94;;;17.49;56.93
60089;BME280;45961;53.574;55.878;2023-05-29T00:18:45;100011.53;;;17.51;56.79
60089;BME280;45961;53.574;55.878;2023-05-29T00:19:46;100021.09;;;17.52;55.95
60089;BME280;45961;53.574;55.878;2023-05-29T00:20:48;100013.13;;;17.57;54.97
60089;BME280;45961;53.574;55.878;2023-05-29T00:21:48;100008.75;;;17.59;54.40
60089;BME280;45961;53.574;55.878;2023-05-29T00:22:50;100011.47;;;17.54;54.73
60089;BME280;45961;53.574;55.878;2023-05-29T00:23:51;100010.50;;;17.58;54.12
60089;BME280;45961;53.574;55.878;2023-05-29T00:24:52;100006.91;;;17.62;53.39
60089;BME280;45961;53.574;55.878;2023-05-29T00:25:53;100005.09;;;17.64;53.03
60089;BME280;45961;53.574;55.878;2023-05-29T00:26:54;99998.09;;;17.66;52.64
60089;BME280;45961;53.574;55.878;2023-05-29T00:27:55;100001.41;;;17.74;52.30
60089;BME280;45961;53.574;55.878;2023-05-29T00:28:56;100004.06;;;17.71;52.48
60089;BME280;45961;53.574;55.878;2023-05-29T00:29:57;100016.13;;;17.80;51.89
60089;BME280;45961;53.574;55.878;2023-05-29T00:30:58;100010.00;;;17.81;51.94
60089;BME280;45961;53.574;55.878;2023-05-29T00:31:59;100012.53;;;17.84;51.92
60089;BME280;45961;53.574;55.878;2023-05-29T00:33:00;100008.94;;;17.88;51.46
60089;BME280;45961;53.574;55.878;2023-05-29T00:34:01;100010.63;;;17.91;51.49
60089;BME280;45961;53.574;55.878;2023-05-29T00:35:02;99996.78;;;17.86;51.58
60089;BME280;45961;53.574;55.878;2023-05-29T00:36:04;99987.97;;;17.88;51.36
60089;BME280;45961;53.574;55.878;2023-05-29T00:37:06;99999.25;;;17.92;51.16
60089;BME280;45961;53.574;55.878;2023-05-29T00:38:07;100008.72;;;17.97;50.91
60089;BME280;45961;53.574;55.878;2023-05-29T00:39:08;100004.19;;;18.04;50.76
60089;BME280;45961;53.574;55.878;2023-05-29T00:40:10;100017.38;;;18.01;50.87
60089;BME280;45961;53.574;55.878;2023-05-29T00:41:15;100011.00;;;18.11;50.59
60089;BME280;45961;53.574;55.878;2023-05-29T00:42:16;100013.63;;;18.11;50.48
60089;BME280;45961;53.574;55.878;2023-05-29T00:43:17;100010.19;;;18.09;50.95
60089;BME280;45961;53.574;55.878;2023-05-29T00:44:19;100011.78;;;18.15;50.82
60089;BME280;45961;53.574;55.878;2023-05-29T00:45:20;100003.91;;;18.15;50.71
60089;BME280;45961;53.574;55.878;2023-05-29T00:46:21;100009.94;;;18.18;50.43
60089;BME280;45961;53.574;55.878;2023-05-29T00:47:22;100008.22;;;18.17;50.92
60089;BME280;45961;53.574;55.878;2023-05-29T00:48:24;100004.72;;;18.18;50.87
60089;BME280;45961;53.574;55.878;2023-05-29T00:49:26;100002.88;;;18.20;50.59
60089;BME280;45961;53.574;55.878;2023-05-29T00:50:27;100006.59;;;18.12;50.95
60089;BME280;45961;53.574;55.878;2023-05-29T00:51:29;100005.50;;;18.22;50.60
60089;BME280;45961;53.574;55.878;2023-05-29T00:52:32;99994.19;;;18.20;50.94
60089;BME280;45961;53.574;55.878;2023-05-29T00:53:33;100001.81;;;18.29;50.62
60089;BME280;45961;53.574;55.878;2023-05-29T00:54:35;99986.19;;;18.24;50.39
60089;BME280;45961;53.574;55.878;2023-05-29T00:55:37;100005.28;;;18.30;50.23
60089;BME280;45961;53.574;55.878;2023-05-29T00:56:39;100013.16;;;18.30;50.44
60089;BME280;45961;53.574;55.878;2023-05-29T00:57:43;100011.22;;;18.36;50.31
60089;BME280;45961;53.574;55.878;2023-05-29T00:58:51;100010.28;;;18.39;50.32
60089;BME280;45961;53.574;55.878;2023-05-29T00:59:53;100005.78;;;18.44;50.43
60089;BME280;45961;53.574;55.878;2023-05-29T01:00:56;100006.44;;;18.52;50.01
60089;BME280;45961;53.574;55.878;2023-05-29T01:01:59;99987.44;;;18.44;49.79
60089;BME280;45961;53.574;55.878;2023-05-29T01:03:03;100014.16;;;18.58;49.93
60089;BME280;45961;53.574;55.878;2023-05-29T01:04:06;100000.38;;;18.50;50.26
60089;BME280;45961;53.574;55.878;2023-05-29T01:05:07;100006.44;;;18.52;50.02
60089;BME280;45961;53.574;55.878;2023-05-29T01:06:10;100006.22;;;18.60;50.10
60089;BME280;45961;53.574;55.878;2023-05-29T01:07:11;100007.72;;;18.68;49.74
60089;BME280;45961;53.574;55.878;2023-05-29T01:08:13;100006.69;;;18.76;49.91
60089;BME280;45961;53.574;55.878;2023-05-29T01:09:14;100000.66;;;18.73;49.37
60089;BME280;45961;53.574;55.878;2023-05-29T01:10:15;100007.59;;;18.74;49.97
60089;BME280;45961;53.574;55.878;2023-05-29T01:11:31;100011.16;;;18.73;50.13
60089;BME280;45961;53.574;55.878;2023-05-29T01:13:41;100006.69;;;18.76;50.04
60089;BME280;45961;53.574;55.878;2023-05-29T01:15:15;100014.22;;;18.88;50.05
60089;BME280;45961;53.574;55.878;2023-05-29T01:16:39;100014.13;;;18.91;50.34
60089;BME280;45961;53.574;55.878;2023-05-29T01:19:41;100013.59;;;19.39;49.02
60089;BME280;45961;53.574;55.878;2023-05-29T01:22:40;100007.56;;;19.65;48.24
60089;BME280;45961;53.574;55.878;2023-05-29T01:25:19;100005.28;;;20.34;46.58
60089;BME280;45961;53.574;55.878;2023-05-29T01:27:46;100005.78;;;20.45;45.76
60089;BME280;45961;53.574;55.878;2023-05-29T01:28:52;100003.81;;;20.27;46.57
60089;BME280;45961;53.574;55.878;2023-05-29T01:29:55;100011.78;;;20.24;46.95
60089;BME280;45961;53.574;55.878;2023-05-29T01:30:57;100010.75;;;20.03;47.65
60089;BME280;45961;53.574;55.878;2023-05-29T01:32:00;100007.38;;;19.97;47.36
60089;BME280;45961;53.574;55.878;2023-05-29T01:33:03;100003.69;;;19.77;47.68
60089;BME280;45961;53.574;55.878;2023-05-29T01:34:04;100009.66;;;19.82;47.78
60089;BME280;45961;53.574;55.878;2023-05-29T01:35:05;100007.78;;;19.85;48.00
60089;BME280;45961;53.574;55.878;2023-05-29T01:36:09;100008.63;;;19.86;47.92
60089;BME280;45961;53.574;55.878;2023-05-29T01:37:11;100007.94;;;19.81;47.83
60089;BME280;45961;53.574;55.878;2023-05-29T01:38:12;100007.31;;;19.72;48.35
60089;BME280;45961;53.574;55.878;2023-05-29T01:39:13;100004.66;;;19.74;48.23
60089;BME280;45961;53.574;55.878;2023-05-29T01:40:15;99998.50;;;19.75;48.30
60089;BME280;45961;53.574;55.878;2023-05-29T01:41:16;99996.97;;;19.68;48.35
60089;BME280;45961;53.574;55.878;2023-05-29T01:42:18;99994.28;;;19.69;48.39
60089;BME280;45961;53.574;55.878;2023-05-29T01:43:19;99992.78;;;19.62;48.60
60089;BME280;45961;53.574;55.878;2023-05-29T01:44:21;100006.97;;;19.55;48.33
60089;BME280;45961;53.574;55.878;2023-05-29T01:45:24;99999.00;;;19.58;48.56
60089;BME280;45961;53.574;55.878;2023-05-29T01:46:25;100005.06;;;19.62;48.77
60089;BME280;45961;53.574;55.878;2023-05-29T01:47:26;100001.53;;;19.61;48.50
60089;BME280;45961;53.574;55.878;2023-05-29T01:48:27;100006.25;;;19.50;48.50
60089;BME280;45961;53.574;55.878;2023-05-29T01:49:31;100009.69;;;19.52;48.99
60089;BME280;45961;53.574;55.878;2023-05-29T01:50:32;100006.91;;;19.57;48.68
60089;BME280;45961;53.574;55.878;2023-05-29T01:51:34;99985.19;;;19.52;48.58
60089;BME280;45961;53.574;55.878;2023-05-29T01:52:36;99986.75;;;19.57;48.89
60089;BME280;45961;53.574;55.878;2023-05-29T01:53:38;100001.47;;;19.64;48.52
60089;BME280;45961;53.574;55.878;2023-05-29T01:54:39;100001.31;;;19.69;48.25
60089;BME280;45961;53.574;55.878;2023-05-29T01:55:40;99993.75;;;19.58;48.35
60089;BME280;45961;53.574;55.878;2023-05-29T01:56:41;100003.44;;;19.56;48.72
60089;BME280;45961;53.574;55.878;2023-05-29T01:57:43;100010.31;;;19.60;48.77
60089;BME280;45961;53.574;55.878;2023-05-29T01:58:45;100008.41;;;19.65;48.60
60089;BME280;45961;53.574;55.878;2023-05-29T01:59:46;100003.28;;;19.62;48.75
60089;BME280;45961;53.574;55.878;2023-05-29T02:00:48;100010.97;;;19.68;48.73
60089;BME280;45961;53.574;55.878;2023-05-29T02:01:49;100012.63;;;19.71;48.70
60089;BME280;45961;53.574;55.878;2023-05-29T02:02:50;100008.16;;;19.75;48.74
60089;BME280;45961;53.574;55.878;2023-05-29T02:03:52;100011.63;;;19.75;48.82
60089;BME280;45961;53.574;55.878;2023-05-29T02:04:53;100008.03;;;19.78;48.60
60089;BME280;45961;53.574;55.878;2023-05-29T02:05:55;100013.09;;;19.84;48.33
60089;BME280;45961;53.574;55.878;2023-05-29T02:06:56;100007.00;;;19.83;48.56
60089;BME280;45961;53.574;55.878;2023-05-29T02:07:58;100008.59;;;19.87;48.60
60089;BME280;45961;53.574;55.878;2023-05-29T02:08:59;100013.88;;;19.86;48.47
60089;BME280;45961;53.574;55.878;2023-05-29T02:10:00;100014.53;;;19.94;48.35
60089;BME280;45961;53.574;55.878;2023-05-29T02:11:01;100018.81;;;19.96;48.41
60089;BME280;45961;53.574;55.878;2023-05-29T02:12:02;100009.13;;;19.99;48.54
60089;BME280;45961;53.574;55.878;2023-05-29T02:13:03;100008.44;;;19.92;48.04
60089;BME280;45961;53.574;55.878;2023-05-29T02:14:04;100011.22;;;19.87;48.19
60089;BME280;45961;53.574;55.878;2023-05-29T02:15:06;100006.59;;;19.95;48.45
60089;BME280;45961;53.574;55.878;2023-05-29T02:16:08;100014.41;;;19.97;48.02
60089;BME280;45961;53.574;55.878;2023-05-29T02:17:09;100003.72;;;20.03;48.86
60089;BME280;45961;53.574;55.878;2023-05-29T02:18:12;99999.16;;;20.08;48.42
60089;BME280;45961;53.574;55.878;2023-05-29T02:19:14;99996.44;;;20.11;48.33
60089;BME280;45961;53.574;55.878;2023-05-29T02:20:15;99999.91;;;20.12;48.40
60089;BME280;45961;53.574;55.878;2023-05-29T02:21:16;100005.31;;;20.07;48.36
60089;BME280;45961;53.574;55.878;2023-05-29T02:22:17;100013.91;;;20.12;47.90
60089;BME280;45961;53.574;55.878;2023-05-29T02:23:18;100008.59;;;20.14;48.13
60089;BME280;45961;53.574;55.878;2023-05-29T02:24:19;100018.97;;;20.18;48.35
60089;BME280;45961;53.574;55.878;2023-05-29T02:25:21;100010.25;;;20.16;48.30
60089;BME280;45961;53.574;55.878;2023-05-29T02:26:22;100016.09;;;20.26;48.31
60089;BME280;45961;53.574;55.878;2023-05-29T02:27:25;100019.56;;;20.27;48.02
60089;BME280;45961;53.574;55.878;2023-05-29T02:28:26;100015.16;;;20.27;47.64
60089;BME280;45961;53.574;55.878;2023-05-29T02:29:27;100018.25;;;20.13;47.22
60089;BME280;45961;53.574;55.878;2023-05-29T02:30:29;100017.28;;;20.16;47.84
60089;BME280;45961;53.574;55.878;2023-05-29T02:31:30;100012.63;;;20.24;47.73
60089;BME280;45961;53.574;55.878;2023-05-29T02:32:31;100016.81;;;20.30;47.98
60089;BME280;45961;53.574;55.878;2023-05-29T02:33:33;100014.84;;;20.36;47.53
60089;BME280;45961;53.574;55.878;2023-05-29T02:34:34;100020.78;;;20.41;47.21
60089;BME280;45961;53.574;55.878;2023-05-29T02:35:35;100019.09;;;20.40;46.83
60089;BME280;45961;53.574;55.878;2023-05-29T02:36:38;100013.72;;;20.43;46.84
60089;BME280;45961;53.574;55.878;2023-05-29T02:37:39;100021.50;;;20.46;46.76
60089;BME280;45961;53.574;55.878;2023-05-29T02:38:40;100021.50;;;20.46;46.67
60089;BME280;45961;53.574;55.878;2023-05-29T02:39:41;100019.19;;;20.37;46.67
60089;BME280;45961;53.574;55.878;2023-05-29T02:40:44;100021.41;;;20.50;46.34
60089;BME280;45961;53.574;55.878;2023-05-29T02:41:45;100024.44;;;20.37;46.52
60089;BME280;45961;53.574;55.878;2023-05-29T02:42:49;100011.25;;;20.39;46.68
60089;BME280;45961;53.574;55.878;2023-05-29T02:43:52;100020.94;;;20.63;46.13
60089;BME280;45961;53.574;55.878;2023-05-29T02:44:55;100019.66;;;20.75;46.25
60089;BME280;45961;53.574;55.878;2023-05-29T02:45:56;100021.78;;;20.89;46.02
60089;BME280;45961;53.574;55.878;2023-05-29T02:46:57;100018.34;;;20.87;45.71
60089;BME280;45961;53.574;55.878;2023-05-29T02:47:58;100024.97;;;20.97;45.48
60089;BME280;45961;53.574;55.878;2023-05-29T02:49:01;100023.75;;;21.07;45.63
60089;BME280;45961;53.574;55.878;2023-05-29T02:50:02;100021.84;;;21.11;45.39
60089;BME280;45961;53.574;55.878;2023-05-29T02:51:05;100022.00;;;21.30;44.93
60089;BME280;45961;53.574;55.878;2023-05-29T02:52:07;100023.84;;;21.51;45.09
60089;BME280;45961;53.574;55.878;2023-05-29T02:53:08;100021.22;;;21.73;44.70
60089;BME280;45961;53.574;55.878;2023-05-29T02:54:10;100013.84;;;21.81;44.57
60089;BME280;45961;53.574;55.878;2023-05-29T02:55:13;100024.16;;;21.87;44.65
60089;BME280;45961;53.574;55.878;2023-05-29T02:56:14;100022.06;;;21.96;44.19
60089;BME280;45961;53.574;55.878;2023-05-29T02:57:17;100019.22;;;22.22;44.00
60089;BME280;45961;53.574;55.878;2023-05-29T02:58:18;100016.88;;;22.36;43.14
60089;BME280;45961;53.574;55.878;2023-05-29T02:59:22;100012.78;;;22.50;43.19
60089;BME280;45961;53.574;55.878;2023-05-29T03:00:25;100019.22;;;22.63;43.34
60089;BME280;45961;53.574;55.878;2023-05-29T03:01:26;100015.91;;;22.99;42.12
60089;BME280;45961;53.574;55.878;2023-05-29T03:02:29;100008.34;;;23.10;41.79
60089;BME280;45961;53.574;55.878;2023-05-29T03:03:30;100019.44;;;23.37;41.34
60089;BME280;45961;53.574;55.878;2023-05-29T03:04:32;100024.91;;;23.51;40.96
60089;BME280;45961;53.574;55.878;2023-05-29T03:05:33;100016.91;;;23.72;41.04
60089;BME280;45961;53.574;55.878;2023-05-29T03:06:35;100018.56;;;23.92;40.35
60089;BME280;45961;53.574;55.878;2023-05-29T03:07:37;100018.94;;;24.20;40.04
60089;BME280;45961;53.574;55.878;2023-05-29T03:08:38;100021.34;;;24.25;40.46
60089;BME280;45961;53.574;55.878;2023-05-29T03:09:41;100020.44;;;24.43;39.94
60089;BME280;45961;53.574;55.878;2023-05-29T03:10:44;100026.41;;;24.47;40.28
60089;BME280;45961;53.574;55.878;2023-05-29T03:11:45;100028.03;;;24.67;39.65
60089;BME280;45961;53.574;55.878;2023-05-29T03:12:48;100034.72;;;24.74;40.46
60089;BME280;45961;53.574;55.878;2023-05-29T03:13:49;100033.06;;;24.89;40.06
60089;BME280;45961;53.574;55.878;2023-05-29T03:14:50;100045.22;;;25.08;39.65
60089;BME280;45961;53.574;55.878;2023-05-29T03:15:51;100046.78;;;25.13;40.02
60089;BME280;45961;53.574;55.878;2023-05-29T03:16:57;100040.41;;;25.32;39.57
60089;BME280;45961;53.574;55.878;2023-05-29T03:18:00;100042.06;;;25.51;39.74
60089;BME280;45961;53.574;55.878;2023-05-29T03:19:04;100048.91;;;25.55;39.70
60089;BME280;45961;53.574;55.878;2023-05-29T03:20:05;100037.59;;;25.67;38.58
60089;BME280;45961;53.574;55.878;2023-05-29T03:21:07;100033.31;;;25.96;37.90
60089;BME280;45961;53.574;55.878;2023-05-29T03:22:08;100031.44;;;25.98;36.89
60089;BME280;45961;53.574;55.878;2023-05-29T03:23:11;100023.91;;;26.06;37.23
60089;BME280;45961;53.574;55.878;2023-05-29T03:24:12;100039.84;;;26.21;36.47
60089;BME280;45961;53.574;55.878;2023-05-29T03:25:16;100030.72;;;26.41;36.22
60089;BME280;45961;53.574;55.878;2023-05-29T03:26:18;100034.59;;;26.35;36.39
60089;BME280;45961;53.574;55.878;2023-05-29T03:27:21;100041.25;;;26.42;36.78
60089;BME280;45961;53.574;55.878;2023-05-29T03:28:31;100028.34;;;26.66;36.63
60089;BME280;45961;53.574;55.878;2023-05-29T03:29:35;100028.94;;;26.86;36.04
60089;BME280;45961;53.574;55.878;2023-05-29T03:30:37;100040.78;;;26.80;36.54
60089;BME280;45961;53.574;55.878;2023-05-29T03:31:38;100041.53;;;26.96;36.02
60089;BME280;45961;53.574;55.878;2023-05-29T03:32:39;100040.78;;;27.08;35.09
60089;BME280;45961;53.574;55.878;2023-05-29T03:33:41;100039.66;;;26.98;34.12
60089;BME280;45961;53.574;55.878;2023-05-29T03:35:03;100036.88;;;27.00;33.76
60089;BME280;45961;53.574;55.878;2023-05-29T03:36:05;100042.03;;;27.17;33.46
60089;BME280;45961;53.574;55.878;2023-05-29T03:37:06;100030.47;;;27.18;33.59
60089;BME280;45961;53.574;55.878;2023-05-29T03:38:09;100024.81;;;27.37;32.86
60089;BME280;45961;53.574;55.878;2023-05-29T03:39:10;100022.09;;;27.39;32.85
60089;BME280;45961;53.574;55.878;2023-05-29T03:40:11;100027.59;;;27.36;32.60
60089;BME280;45961;53.574;55.878;2023-05-29T03:41:13;100033.28;;;27.29;32.57
60089;BME280;45961;53.574;55.878;2023-05-29T03:42:14;100028.06;;;27.28;32.26
60089;BME280;45961;53.574;55.878;2023-05-29T03:43:16;100034.72;;;27.35;32.54
60089;BME280;45961;53.574;55.878;2023-05-29T03:44:16;100032.13;;;27.34;32.43
60089;BME280;45961;53.574;55.878;2023-05-29T03:45:17;100025.16;;;27.18;31.35
60089;BME280;45961;53.574;55.878;2023-05-29T03:46:18;100022.16;;;27.08;31.83
60089;BME280;45961;53.574;55.878;2023-05-29T03:47:19;100022.88;;;26.98;31.07
60089;BME280;45961;53.574;55.878;2023-05-29T03:48:21;100022.13;;;27.10;31.27
60089;BME280;45961;53.574;55.878;2023-05-29T03:49:23;100016.53;;;27.15;30.94
60089;BME280;45961;53.574;55.878;2023-05-29T03:50:24;100011.16;;;27.00;30.69
60089;BME280;45961;53.574;55.878;2023-05-29T03:51:25;100022.13;;;27.10;30.48
60089;BME280;45961;53.574;55.878;2023-05-29T03:52:29;100012.13;;;26.99;30.03
60089;BME280;45961;53.574;55.878;2023-05-29T03:53:30;100014.19;;;27.08;30.71
60089;BME280;45961;53.574;55.878;2023-05-29T03:54:32;100027.53;;;27.23;31.24
60089;BME280;45961;53.574;55.878;2023-05-29T03:55:36;100033.75;;;27.36;31.23
60089;BME280;45961;53.574;55.878;2023-05-29T03:56:37;100029.94;;;27.40;30.79
60089;BME280;45961;53.574;55.878;2023-05-29T03:57:39;100022.75;;;27.42;30.97
60089;BME280;45961;53.574;55.878;2023-05-29T03:58:43;100019.50;;;27.51;30.66
60089;BME280;45961;53.574;55.878;2023-05-29T03:59:44;100020.88;;;27.57;30.90
60089;BME280;45961;53.574;55.878;2023-05-29T04:00:45;100010.13;;;27.03;30.15
60089;BME280;45961;53.574;55.878;2023-05-29T04:01:49;100013.38;;;27.22;30.17
60089;BME280;45961;53.574;55.878;2023-05-29T04:02:50;100012.19;;;27.41;29.77
60089;BME280;45961;53.574;55.878;2023-05-29T04:03:53;100016.06;;;27.49;30.74
60089;BME280;45961;53.574;55.878;2023-05-29T04:04:54;100009.66;;;27.25;29.78
60089;BME280;45961;53.574;55.878;2023-05-29T04:05:56;100011.66;;;27.21;29.94
60089;BME280;45961;53.574;55.878;2023-05-29T04:06:57;100011.16;;;27.29;29.84
60089;BME280;45961;53.574;55.878;2023-05-29T04:07:58;100009.72;;;27.38;30.26
60089;BME280;45961;53.574;55.878;2023-05-29T04:08:59;99999.75;;;27.41;30.21
60089;BME280;45961;53.574;55.878;2023-05-29T04:10:03;100002.19;;;27.59;30.46
60089;BME280;45961;53.574;55.878;2023-05-29T04:11:04;99994.28;;;27.57;31.05
60089;BME280;45961;53.574;55.878;2023-05-29T04:12:06;99994.16;;;27.73;30.72
60089;BME280;45961;53.574;55.878;2023-05-29T04:13:08;99996.25;;;27.68;30.66
60089;BME280;45961;53.574;55.878;2023-05-29T04:14:09;99993.78;;;27.65;30.39
60089;BME280;45961;53.574;55.878;2023-05-29T04:15:10;100004.84;;;27.59;30.01
60089;BME280;45961;53.574;55.878;2023-05-29T04:16:11;100006.34;;;27.21;30.54
60089;BME280;45961;53.574;55.878;2023-05-29T04:17:12;100002.03;;;27.33;29.82
60089;BME280;45961;53.574;55.878;2023-05-29T04:18:13;100008.69;;;27.40;29.91
60089;BME280;45961;53.574;55.878;2023-05-29T04:19:14;100010.53;;;27.67;30.34
60089;BME280;45961;53.574;55.878;2023-05-29T04:20:15;100009.00;;;27.63;30.99
60089;BME280;45961;53.574;55.878;2023-05-29T04:21:16;100013.69;;;27.59;30.54
60089;BME280;45961;53.574;55.878;2023-05-29T04:22:17;100002.81;;;27.76;30.90
60089;BME280;45961;53.574;55.878;2023-05-29T04:23:20;100008.50;;;27.97;30.70
60089;BME280;45961;53.574;55.878;2023-05-29T04:24:21;100012.50;;;28.17;30.97
60089;BME280;45961;53.574;55.878;2023-05-29T04:25:22;100006.31;;;28.17;30.98
60089;BME280;45961;53.574;55.878;2023-05-29T04:26:24;100007.81;;;28.21;30.70
60089;BME280;45961;53.574;55.878;2023-05-29T04:27:26;100006.97;;;28.20;30.43
60089;BME280;45961;53.574;55.878;2023-05-29T04:28:28;100005.47;;;28.16;30.26
60089;BME280;45961;53.574;55.878;2023-05-29T04:29:30;100008.66;;;28.09;29.76
60089;BME280;45961;53.574;55.878;2023-05-29T04:30:31;100012.84;;;27.86;29.78
60089;BME280;45961;53.574;55.878;2023-05-29T04:31:35;100015.56;;;27.98;30.09
60089;BME280;45961;53.574;55.878;2023-05-29T04:32:39;100004.91;;;27.98;29.90
60089;BME280;45961;53.574;55.878;2023-05-29T04:33:41;100002.72;;;27.78;29.65
60089;BME280;45961;53.574;55.878;2023-05-29T04:34:42;100007.97;;;27.92;30.70
60089;BME280;45961;53.574;55.878;2023-05-29T04:35:49;100006.63;;;27.99;30.77
60089;BME280;45961;53.574;55.878;2023-05-29T04:36:51;100003.97;;;28.12;31.29
60089;BME280;45961;53.574;55.878;2023-05-29T04:37:52;100002.31;;;27.84;30.34
60089;BME280;45961;53.574;55.878;2023-05-29T04:38:54;100002.69;;;28.05;30.82
60089;BME280;45961;53.574;55.878;2023-05-29T04:39:57;100003.53;;;28.05;30.34
60089;BME280;45961;53.574;55.878;2023-05-29T04:41:00;99998.78;;;28.11;30.68
60089;BME280;45961;53.574;55.878;2023-05-29T04:42:04;100004.69;;;28.01;30.49
60089;BME280;45961;53.574;55.878;2023-05-29T04:43:06;100010.66;;;28.05;30.40
60089;BME280;45961;53.574;55.878;2023-05-29T04:44:25;100010.59;;;28.19;30.45
60089;BME280;45961;53.574;55.878;2023-05-29T04:45:29;100013.69;;;28.26;30.74
60089;BME280;45961;53.574;55.878;2023-05-29T04:46:30;100008.16;;;28.29;30.78
60089;BME280;45961;53.574;55.878;2023-05-29T04:47:32;100015.81;;;28.34;30.23
60089;BME280;45961;53.574;55.878;2023-05-29T04:48:40;100015.47;;;28.40;30.82
60089;BME280;45961;53.574;55.878;2023-05-29T04:49:44;100016.84;;;28.45;30.60
60089;BME280;45961;53.574;55.878;2023-05-29T04:50:49;100015.34;;;28.54;29.92
60089;BME280;45961;53.574;55.878;2023-05-29T04:51:51;100010.88;;;28.42;30.06
60089;BME280;45961;53.574;55.878;2023-05-29T04:52:53;100002.84;;;28.29;30.08
60089;BME280;45961;53.574;55.878;2023-05-29T04:53:54;100019.94;;;28.39;29.85
60089;BME280;45961;53.574;55.878;2023-05-29T04:54:55;100020.13;;;28.36;30.36
60089;BME280;45961;53.574;55.878;2023-05-29T04:55:58;100019.50;;;28.45;30.29
60089;BME280;45961;53.574;55.878;2023-05-29T04:56:59;100019.28;;;28.48;30.06
60089;BME280;45961;53.574;55.878;2023-05-29T04:58:04;100014.50;;;28.66;29.73
60089;BME280;45961;53.574;55.878;2023-05-29T04:59:05;100021.00;;;28.49;28.75
60089;BME280;45961;53.574;55.878;2023-05-29T05:00:07;100019.63;;;28.57;29.64
60089;BME280;45961;53.574;55.878;2023-05-29T05:01:14;100021.44;;;28.56;29.64
60089;BME280;45961;53.574;55.878;2023-05-29T05:02:15;100024.09;;;28.69;29.77
60089;BME280;45961;53.574;55.878;2023-05-29T05:03:17;100023.56;;;28.64;29.41
60089;BME280;45961;53.574;55.878;2023-05-29T05:04:18;100024.84;;;28.71;29.98
60089;BME280;45961;53.574;55.878;2023-05-29T05:05:19;100028.56;;;28.68;30.04
60089;BME280;45961;53.574;55.878;2023-05-29T05:06:22;100026.34;;;28.75;29.88
60089;BME280;45961;53.574;55.878;2023-05-29T05:07:22;100025.91;;;28.68;30.30
60089;BME280;45961;53.574;55.878;2023-05-29T05:08:23;100028.25;;;28.60;29.29
60089;BME280;45961;53.574;55.878;2023-05-29T05:09:24;100031.75;;;28.73;29.55
60089;BME280;45961;53.574;55.878;2023-05-29T05:10:27;100029.53;;;28.80;29.55
60089;BME280;45961;53.574;55.878;2023-05-29T05:11:28;100026.88;;;28.80;29.29
60089;BME280;45961;53.574;55.878;2023-05-29T05:12:29;100031.88;;;28.72;29.51
60089;BME280;45961;53.574;55.878;2023-05-29T05:13:30;100033.06;;;28.81;30.01
60089;BME280;45961;53.574;55.878;2023-05-29T05:14:31;100029.41;;;28.94;29.90
60089;BME280;45961;53.574;55.878;2023-05-29T05:15:32;100035.31;;;28.99;30.43
60089;BME280;45961;53.574;55.878;2023-05-29T05:16:33;100033.59;;;28.98;29.96
60089;BME280;45961;53.574;55.878;2023-05-29T05:17:34;100039.34;;;28.92;29.88
60089;BME280;45961;53.574;55.878;2023-05-29T05:18:38;100033.91;;;29.07;29.69
60089;BME280;45961;53.574;55.878;2023-05-29T05:19:41;100034.34;;;29.00;28.64
60089;BME280;45961;53.574;55.878;2023-05-29T05:20:42;100034.44;;;29.12;29.14
60089;BME280;45961;53.574;55.878;2023-05-29T05:21:43;100038.81;;;29.13;29.20
60089;BME280;45961;53.574;55.878;2023-05-29T05:22:44;100039.75;;;29.24;28.94
60089;BME280;45961;53.574;55.878;2023-05-29T05:23:46;100036.97;;;29.26;29.26
60089;BME280;45961;53.574;55.878;2023-05-29T05:24:48;100030.47;;;29.17;28.27
60089;BME280;45961;53.574;55.878;2023-05-29T05:25:48;100028.16;;;29.13;28.20
60089;BME280;45961;53.574;55.878;2023-05-29T05:26:50;100023.34;;;29.05;28.48
60089;BME280;45961;53.574;55.878;2023-05-29T05:27:51;100017.81;;;29.08;28.80
60089;BME280;45961;53.574;55.878;2023-05-29T05:28:53;100029.03;;;29.00;28.95